Chester, West Virginia
Current Conditions -  °F | °C
As of 8:54 AM on Monday 26 Jan 2015 (Local Time) from KPIT Reporting Station
Light Snow Light Snow  
Wind Chill: 19°   Ceiling: 800
Heat Index: 27°   Visibility: 0.5mi
Dew Point: 25°   Wind: 7mph
Humidity: 92%   Direction: 20°NNE
Pressure: 29.69"   Gusts: NA
Location:  40.61°N, 80.56°W
Report Text: KPIT 261354Z 02006KT 1/2SM R28R/4500VP6000FT -SN VV008 M03/M04 A2969 RMK AO2 SFC VIS 1 P0000 T10281039
Loading
Personal Weather Stations






























Interactive Weather Map New forecast layout! Learn more

10-Day Weather Forecast

Advertisements
Track Severe Weather on mobile